sensor_id;sensor_type;location;lat;lon;timestamp;temperature;humidity
10702;DHT22;5402;50.004;8.246;2023-05-23T00:01:09;18.50;99.90
10702;DHT22;5402;50.004;8.246;2023-05-23T00:03:40;18.50;99.90
10702;DHT22;5402;50.004;8.246;2023-05-23T00:06:07;18.50;99.90
10702;DHT22;5402;50.004;8.246;2023-05-23T00:08:33;18.50;99.90
10702;DHT22;5402;50.004;8.246;2023-05-23T00:11:00;18.50;99.90
10702;DHT22;5402;50.004;8.246;2023-05-23T00:13:27;18.40;99.90
10702;DHT22;5402;50.004;8.246;2023-05-23T00:15:53;18.40;99.90
10702;DHT22;5402;50.004;8.246;2023-05-23T00:18:20;18.40;99.90
10702;DHT22;5402;50.004;8.246;2023-05-23T00:20:50;18.40;99.90
10702;DHT22;5402;50.004;8.246;2023-05-23T00:23:17;18.40;99.90
10702;DHT22;5402;50.004;8.246;2023-05-23T00:25:45;18.40;99.90
10702;DHT22;5402;50.004;8.246;2023-05-23T00:28:17;18.40;99.90
10702;DHT22;5402;50.004;8.246;2023-05-23T00:30:43;18.40;99.90
10702;DHT22;5402;50.004;8.246;2023-05-23T00:33:10;18.30;99.90
10702;DHT22;5402;50.004;8.246;2023-05-23T00:35:38;18.30;99.90
10702;DHT22;5402;50.004;8.246;2023-05-23T00:38:07;18.30;99.90
10702;DHT22;5402;50.004;8.246;2023-05-23T00:40:34;18.20;99.90
10702;DHT22;5402;50.004;8.246;2023-05-23T00:43:00;18.40;99.90
10702;DHT22;5402;50.004;8.246;2023-05-23T00:45:27;18.30;99.90
10702;DHT22;5402;50.004;8.246;2023-05-23T00:47:54;18.20;99.90
10702;DHT22;5402;50.004;8.246;2023-05-23T00:50:23;18.30;99.90
10702;DHT22;5402;50.004;8.246;2023-05-23T00:52:55;18.40;99.90
10702;DHT22;5402;50.004;8.246;2023-05-23T00:55:24;18.40;99.90
10702;DHT22;5402;50.004;8.246;2023-05-23T00:57:52;18.40;99.90
10702;DHT22;5402;50.004;8.246;2023-05-23T01:00:20;18.40;99.90
10702;DHT22;5402;50.004;8.246;2023-05-23T01:02:49;18.30;99.90
10702;DHT22;5402;50.004;8.246;2023-05-23T01:05:17;18.30;99.90
10702;DHT22;5402;50.004;8.246;2023-05-23T01:07:44;18.30;99.90
10702;DHT22;5402;50.004;8.246;2023-05-23T01:10:12;18.30;99.90
10702;DHT22;5402;50.004;8.246;2023-05-23T01:12:45;18.30;99.90
10702;DHT22;5402;50.004;8.246;2023-05-23T01:15:18;18.30;99.90
10702;DHT22;5402;50.004;8.246;2023-05-23T01:17:51;18.20;99.90
10702;DHT22;5402;50.004;8.246;2023-05-23T01:20:21;18.30;99.90
10702;DHT22;5402;50.004;8.246;2023-05-23T01:22:59;18.30;99.90
10702;DHT22;5402;50.004;8.246;2023-05-23T01:25:43;18.30;99.90
10702;DHT22;5402;50.004;8.246;2023-05-23T01:28:16;18.30;99.90
10702;DHT22;5402;50.004;8.246;2023-05-23T01:30:45;18.30;99.90
10702;DHT22;5402;50.004;8.246;2023-05-23T01:33:15;18.30;99.90
10702;DHT22;5402;50.004;8.246;2023-05-23T01:35:42;18.30;99.90
10702;DHT22;5402;50.004;8.246;2023-05-23T01:38:09;18.20;99.90
10702;DHT22;5402;50.004;8.246;2023-05-23T01:40:36;18.10;99.90
10702;DHT22;5402;50.004;8.246;2023-05-23T01:43:03;18.10;99.90
10702;DHT22;5402;50.004;8.246;2023-05-23T01:45:31;18.10;99.90
10702;DHT22;5402;50.004;8.246;2023-05-23T01:48:00;18.00;99.90
10702;DHT22;5402;50.004;8.246;2023-05-23T01:50:28;18.00;99.90
10702;DHT22;5402;50.004;8.246;2023-05-23T01:52:55;17.90;99.90
10702;DHT22;5402;50.004;8.246;2023-05-23T01:55:24;17.90;99.90
10702;DHT22;5402;50.004;8.246;2023-05-23T01:57:54;17.80;99.90
10702;DHT22;5402;50.004;8.246;2023-05-23T02:00:21;17.70;99.90
10702;DHT22;5402;50.004;8.246;2023-05-23T02:02:50;17.70;99.90
10702;DHT22;5402;50.004;8.246;2023-05-23T02:05:16;17.50;99.90
10702;DHT22;5402;50.004;8.246;2023-05-23T02:07:43;17.40;99.90
10702;DHT22;5402;50.004;8.246;2023-05-23T02:10:10;17.30;99.90
10702;DHT22;5402;50.004;8.246;2023-05-23T02:12:36;17.30;99.90
10702;DHT22;5402;50.004;8.246;2023-05-23T02:15:04;17.30;99.90
10702;DHT22;5402;50.004;8.246;2023-05-23T02:17:32;17.30;99.90
10702;DHT22;5402;50.004;8.246;2023-05-23T02:20:00;17.30;99.90
10702;DHT22;5402;50.004;8.246;2023-05-23T02:22:26;17.30;99.90
10702;DHT22;5402;50.004;8.246;2023-05-23T02:24:53;17.20;99.90
10702;DHT22;5402;50.004;8.246;2023-05-23T02:27:20;17.10;99.90
10702;DHT22;5402;50.004;8.246;2023-05-23T02:29:46;17.00;99.90
10702;DHT22;5402;50.004;8.246;2023-05-23T02:32:13;17.00;99.90
10702;DHT22;5402;50.004;8.246;2023-05-23T02:34:40;16.90;99.90
10702;DHT22;5402;50.004;8.246;2023-05-23T02:37:08;16.90;99.90
10702;DHT22;5402;50.004;8.246;2023-05-23T02:39:35;16.80;99.90
10702;DHT22;5402;50.004;8.246;2023-05-23T02:42:02;16.80;99.90
10702;DHT22;5402;50.004;8.246;2023-05-23T02:44:29;16.70;99.90
10702;DHT22;5402;50.004;8.246;2023-05-23T02:46:55;16.70;99.90
10702;DHT22;5402;50.004;8.246;2023-05-23T02:49:22;16.60;99.90
10702;DHT22;5402;50.004;8.246;2023-05-23T02:51:49;16.50;99.90
10702;DHT22;5402;50.004;8.246;2023-05-23T02:54:17;16.60;99.90
10702;DHT22;5402;50.004;8.246;2023-05-23T02:56:44;16.50;99.90
10702;DHT22;5402;50.004;8.246;2023-05-23T02:59:11;16.50;99.90
10702;DHT22;5402;50.004;8.246;2023-05-23T03:01:38;16.50;99.90
10702;DHT22;5402;50.004;8.246;2023-05-23T03:04:04;16.50;99.90
10702;DHT22;5402;50.004;8.246;2023-05-23T03:06:31;16.40;99.90
10702;DHT22;5402;50.004;8.246;2023-05-23T03:08:58;16.30;99.90
10702;DHT22;5402;50.004;8.246;2023-05-23T03:11:26;16.30;99.90
10702;DHT22;5402;50.004;8.246;2023-05-23T03:13:54;16.20;99.90
10702;DHT22;5402;50.004;8.246;2023-05-23T03:16:21;16.10;99.90
10702;DHT22;5402;50.004;8.246;2023-05-23T03:18:48;16.10;99.90
10702;DHT22;5402;50.004;8.246;2023-05-23T03:21:14;16.00;99.90
10702;DHT22;5402;50.004;8.246;2023-05-23T03:23:41;16.00;99.90
10702;DHT22;5402;50.004;8.246;2023-05-23T03:26:08;16.10;99.90
10702;DHT22;5402;50.004;8.246;2023-05-23T03:28:36;16.10;99.90
10702;DHT22;5402;50.004;8.246;2023-05-23T03:31:02;16.10;99.90
10702;DHT22;5402;50.004;8.246;2023-05-23T03:33:29;16.00;99.90
10702;DHT22;5402;50.004;8.246;2023-05-23T03:35:56;16.00;99.90
10702;DHT22;5402;50.004;8.246;2023-05-23T03:38:22;15.90;99.90
10702;DHT22;5402;50.004;8.246;2023-05-23T03:40:49;16.00;99.90
10702;DHT22;5402;50.004;8.246;2023-05-23T03:43:16;15.90;99.90
10702;DHT22;5402;50.004;8.246;2023-05-23T03:45:44;15.90;99.90
10702;DHT22;5402;50.004;8.246;2023-05-23T03:48:11;15.80;99.90
10702;DHT22;5402;50.004;8.246;2023-05-23T03:50:38;15.90;99.90
10702;DHT22;5402;50.004;8.246;2023-05-23T03:53:05;16.00;99.90
10702;DHT22;5402;50.004;8.246;2023-05-23T03:55:32;15.80;99.90
10702;DHT22;5402;50.004;8.246;2023-05-23T03:57:59;15.80;99.90
10702;DHT22;5402;50.004;8.246;2023-05-23T04:00:26;15.90;99.90
10702;DHT22;5402;50.004;8.246;2023-05-23T04:02:54;16.00;99.90
10702;DHT22;5402;50.004;8.246;2023-05-23T04:05:21;16.00;99.90
10702;DHT22;5402;50.004;8.246;2023-05-23T04:07:48;16.10;99.90
10702;DHT22;5402;50.004;8.246;2023-05-23T04:10:16;16.00;99.90
10702;DHT22;5402;50.004;8.246;2023-05-23T04:12:42;16.20;99.90
10702;DHT22;5402;50.004;8.246;2023-05-23T04:15:09;16.20;99.90
10702;DHT22;5402;50.004;8.246;2023-05-23T04:17:36;16.10;99.90
10702;DHT22;5402;50.004;8.246;2023-05-23T04:20:06;16.20;99.90
10702;DHT22;5402;50.004;8.246;2023-05-23T04:22:34;16.10;99.90
10702;DHT22;5402;50.004;8.246;2023-05-23T04:25:00;16.10;99.90
10702;DHT22;5402;50.004;8.246;2023-05-23T04:27:27;16.10;99.90
10702;DHT22;5402;50.004;8.246;2023-05-23T04:29:55;16.10;99.90
10702;DHT22;5402;50.004;8.246;2023-05-23T04:32:22;16.10;99.90
10702;DHT22;5402;50.004;8.246;2023-05-23T04:34:49;16.00;99.90
10702;DHT22;5402;50.004;8.246;2023-05-23T04:37:17;16.00;99.90
10702;DHT22;5402;50.004;8.246;2023-05-23T04:39:46;16.00;99.90
10702;DHT22;5402;50.004;8.246;2023-05-23T04:42:13;15.90;99.90
10702;DHT22;5402;50.004;8.246;2023-05-23T04:44:40;16.00;99.90
10702;DHT22;5402;50.004;8.246;2023-05-23T04:47:07;16.00;99.90
10702;DHT22;5402;50.004;8.246;2023-05-23T04:49:35;16.00;99.90
10702;DHT22;5402;50.004;8.246;2023-05-23T04:52:01;16.10;99.90
10702;DHT22;5402;50.004;8.246;2023-05-23T04:54:29;16.10;99.90
10702;DHT22;5402;50.004;8.246;2023-05-23T04:56:57;16.10;99.90
10702;DHT22;5402;50.004;8.246;2023-05-23T04:59:24;16.10;99.90
10702;DHT22;5402;50.004;8.246;2023-05-23T05:01:51;16.10;99.90
10702;DHT22;5402;50.004;8.246;2023-05-23T05:04:17;16.20;99.90
10702;DHT22;5402;50.004;8.246;2023-05-23T05:06:45;16.20;99.90
10702;DHT22;5402;50.004;8.246;2023-05-23T05:09:12;16.20;99.90
10702;DHT22;5402;50.004;8.246;2023-05-23T05:11:40;16.20;99.90
10702;DHT22;5402;50.004;8.246;2023-05-23T05:14:07;16.20;99.90
10702;DHT22;5402;50.004;8.246;2023-05-23T05:16:34;16.20;99.90
10702;DHT22;5402;50.004;8.246;2023-05-23T05:19:02;16.30;99.90
10702;DHT22;5402;50.004;8.246;2023-05-23T05:21:28;16.30;99.90
10702;DHT22;5402;50.004;8.246;2023-05-23T05:23:55;16.40;99.90
10702;DHT22;5402;50.004;8.246;2023-05-23T05:26:24;16.40;99.90
10702;DHT22;5402;50.004;8.246;2023-05-23T05:28:52;16.40;99.90
10702;DHT22;5402;50.004;8.246;2023-05-23T05:31:19;16.50;99.90
10702;DHT22;5402;50.004;8.246;2023-05-23T05:33:46;16.50;99.90
10702;DHT22;5402;50.004;8.246;2023-05-23T05:36:13;16.60;99.90
10702;DHT22;5402;50.004;8.246;2023-05-23T05:38:39;16.60;99.90
10702;DHT22;5402;50.004;8.246;2023-05-23T05:41:06;16.60;99.90
10702;DHT22;5402;50.004;8.246;2023-05-23T05:43:33;16.60;99.90
10702;DHT22;5402;50.004;8.246;2023-05-23T05:46:01;16.40;99.90
10702;DHT22;5402;50.004;8.246;2023-05-23T05:48:28;16.40;99.90
10702;DHT22;5402;50.004;8.246;2023-05-23T05:50:55;16.40;99.90
10702;DHT22;5402;50.004;8.246;2023-05-23T05:53:22;16.50;99.90
10702;DHT22;5402;50.004;8.246;2023-05-23T05:55:48;16.50;99.90
10702;DHT22;5402;50.004;8.246;2023-05-23T05:58:15;16.40;99.90
10702;DHT22;5402;50.004;8.246;2023-05-23T06:00:42;16.40;99.90
10702;DHT22;5402;50.004;8.246;2023-05-23T06:03:11;16.40;99.90
10702;DHT22;5402;50.004;8.246;2023-05-23T06:05:38;16.40;99.90
10702;DHT22;5402;50.004;8.246;2023-05-23T06:08:05;16.50;99.90
10702;DHT22;5402;50.004;8.246;2023-05-23T06:10:31;16.60;99.90
10702;DHT22;5402;50.004;8.246;2023-05-23T06:12:58;16.60;99.90
10702;DHT22;5402;50.004;8.246;2023-05-23T06:15:25;16.70;99.90
10702;DHT22;5402;50.004;8.246;2023-05-23T06:17:52;16.60;99.90
10702;DHT22;5402;50.004;8.246;2023-05-23T06:20:20;16.70;99.90
10702;DHT22;5402;50.004;8.246;2023-05-23T06:22:46;16.50;99.90
10702;DHT22;5402;50.004;8.246;2023-05-23T06:25:13;16.50;99.90
10702;DHT22;5402;50.004;8.246;2023-05-23T06:27:40;16.50;99.90
10702;DHT22;5402;50.004;8.246;2023-05-23T06:30:07;16.60;99.90
10702;DHT22;5402;50.004;8.246;2023-05-23T06:32:34;16.70;99.90
10702;DHT22;5402;50.004;8.246;2023-05-23T06:35:01;16.70;99.90
10702;DHT22;5402;50.004;8.246;2023-05-23T06:37:29;16.80;99.90
10702;DHT22;5402;50.004;8.246;2023-05-23T06:39:56;16.70;99.90
10702;DHT22;5402;50.004;8.246;2023-05-23T06:42:22;16.60;99.90
10702;DHT22;5402;50.004;8.246;2023-05-23T06:44:49;16.50;99.90
10702;DHT22;5402;50.004;8.246;2023-05-23T06:47:16;16.60;99.90
10702;DHT22;5402;50.004;8.246;2023-05-23T06:49:42;16.60;99.90
10702;DHT22;5402;50.004;8.246;2023-05-23T06:52:10;16.60;99.90
10702;DHT22;5402;50.004;8.246;2023-05-23T06:54:38;16.60;99.90
10702;DHT22;5402;50.004;8.246;2023-05-23T06:57:05;16.60;99.90
10702;DHT22;5402;50.004;8.246;2023-05-23T06:59:31;16.70;99.90
10702;DHT22;5402;50.004;8.246;2023-05-23T07:01:58;16.70;99.90
10702;DHT22;5402;50.004;8.246;2023-05-23T07:04:27;16.70;99.90
10702;DHT22;5402;50.004;8.246;2023-05-23T07:06:56;16.60;99.90
10702;DHT22;5402;50.004;8.246;2023-05-23T07:09:23;16.60;99.90
10702;DHT22;5402;50.004;8.246;2023-05-23T07:11:51;16.80;99.90
10702;DHT22;5402;50.004;8.246;2023-05-23T07:14:18;16.90;99.90
10702;DHT22;5402;50.004;8.246;2023-05-23T07:16:48;16.90;99.90
10702;DHT22;5402;50.004;8.246;2023-05-23T07:19:15;17.30;99.90
10702;DHT22;5402;50.004;8.246;2023-05-23T07:21:43;17.00;99.90
10702;DHT22;5402;50.004;8.246;2023-05-23T07:24:10;17.00;99.90
10702;DHT22;5402;50.004;8.246;2023-05-23T07:26:44;17.20;99.90
10702;DHT22;5402;50.004;8.246;2023-05-23T07:29:12;17.20;99.90
10702;DHT22;5402;50.004;8.246;2023-05-23T07:31:40;17.10;99.90
10702;DHT22;5402;50.004;8.246;2023-05-23T07:34:08;17.00;99.90
10702;DHT22;5402;50.004;8.246;2023-05-23T07:36:34;17.10;99.90
10702;DHT22;5402;50.004;8.246;2023-05-23T07:39:02;17.50;99.90
10702;DHT22;5402;50.004;8.246;2023-05-23T07:41:29;17.30;99.90
10702;DHT22;5402;50.004;8.246;2023-05-23T07:43:56;17.40;99.90
10702;DHT22;5402;50.004;8.246;2023-05-23T07:46:25;17.20;99.90
10702;DHT22;5402;50.004;8.246;2023-05-23T07:48:54;17.20;99.90
10702;DHT22;5402;50.004;8.246;2023-05-23T07:51:21;17.20;99.90
10702;DHT22;5402;50.004;8.246;2023-05-23T07:53:48;17.00;99.90
10702;DHT22;5402;50.004;8.246;2023-05-23T07:56:19;17.00;99.90
10702;DHT22;5402;50.004;8.246;2023-05-23T07:58:47;17.30;99.90
10702;DHT22;5402;50.004;8.246;2023-05-23T08:01:14;17.30;99.90
10702;DHT22;5402;50.004;8.246;2023-05-23T08:03:43;17.40;99.90
10702;DHT22;5402;50.004;8.246;2023-05-23T08:06:12;17.40;99.90
10702;DHT22;5402;50.004;8.246;2023-05-23T08:08:38;17.40;99.90
10702;DHT22;5402;50.004;8.246;2023-05-23T08:11:05;17.70;99.90
10702;DHT22;5402;50.004;8.246;2023-05-23T08:13:32;17.90;99.90
10702;DHT22;5402;50.004;8.246;2023-05-23T08:15:59;17.90;99.90
10702;DHT22;5402;50.004;8.246;2023-05-23T08:18:26;18.20;99.90
10702;DHT22;5402;50.004;8.246;2023-05-23T08:20:54;18.30;99.90
10702;DHT22;5402;50.004;8.246;2023-05-23T08:23:21;18.50;99.90
10702;DHT22;5402;50.004;8.246;2023-05-23T08:25:47;18.50;99.90
10702;DHT22;5402;50.004;8.246;2023-05-23T08:28:14;18.50;99.90
10702;DHT22;5402;50.004;8.246;2023-05-23T08:30:41;18.40;99.90
10702;DHT22;5402;50.004;8.246;2023-05-23T08:33:08;18.50;99.90
10702;DHT22;5402;50.004;8.246;2023-05-23T08:35:35;18.60;99.90
10702;DHT22;5402;50.004;8.246;2023-05-23T08:38:06;18.30;99.90
10702;DHT22;5402;50.004;8.246;2023-05-23T08:40:34;18.20;99.90
10702;DHT22;5402;50.004;8.246;2023-05-23T08:43:01;18.30;99.90
10702;DHT22;5402;50.004;8.246;2023-05-23T08:45:29;18.40;99.90
10702;DHT22;5402;50.004;8.246;2023-05-23T08:47:59;18.60;99.90
10702;DHT22;5402;50.004;8.246;2023-05-23T08:50:29;18.40;99.90
10702;DHT22;5402;50.004;8.246;2023-05-23T08:52:56;18.40;99.90
10702;DHT22;5402;50.004;8.246;2023-05-23T08:55:25;18.50;99.90
10702;DHT22;5402;50.004;8.246;2023-05-23T08:57:53;18.40;99.90
10702;DHT22;5402;50.004;8.246;2023-05-23T09:00:21;18.60;99.90
10702;DHT22;5402;50.004;8.246;2023-05-23T09:02:49;18.50;99.90
10702;DHT22;5402;50.004;8.246;2023-05-23T09:05:17;18.20;99.90
10702;DHT22;5402;50.004;8.246;2023-05-23T09:07:45;18.30;99.90
10702;DHT22;5402;50.004;8.246;2023-05-23T09:10:14;18.20;99.90
10702;DHT22;5402;50.004;8.246;2023-05-23T09:12:44;18.10;99.90
10702;DHT22;5402;50.004;8.246;2023-05-23T09:15:11;18.00;99.90
10702;DHT22;5402;50.004;8.246;2023-05-23T09:17:39;18.00;99.90
10702;DHT22;5402;50.004;8.246;2023-05-23T09:20:15;17.90;99.90
10702;DHT22;5402;50.004;8.246;2023-05-23T09:22:45;17.90;99.90
10702;DHT22;5402;50.004;8.246;2023-05-23T09:25:14;18.10;99.90
10702;DHT22;5402;50.004;8.246;2023-05-23T09:27:43;18.20;99.90
10702;DHT22;5402;50.004;8.246;2023-05-23T09:30:10;18.30;99.90
10702;DHT22;5402;50.004;8.246;2023-05-23T09:32:38;18.40;99.90
10702;DHT22;5402;50.004;8.246;2023-05-23T09:35:07;18.50;99.90
10702;DHT22;5402;50.004;8.246;2023-05-23T09:37:38;18.60;99.90
10702;DHT22;5402;50.004;8.246;2023-05-23T09:40:06;18.60;99.90
10702;DHT22;5402;50.004;8.246;2023-05-23T09:42:36;18.60;99.90
10702;DHT22;5402;50.004;8.246;2023-05-23T09:45:10;18.40;99.90
10702;DHT22;5402;50.004;8.246;2023-05-23T09:47:36;18.30;99.90
10702;DHT22;5402;50.004;8.246;2023-05-23T09:50:04;18.30;99.90
10702;DHT22;5402;50.004;8.246;2023-05-23T09:52:35;18.60;99.90
10702;DHT22;5402;50.004;8.246;2023-05-23T09:55:03;18.70;99.90
10702;DHT22;5402;50.004;8.246;2023-05-23T09:57:34;18.90;99.90
10702;DHT22;5402;50.004;8.246;2023-05-23T10:00:03;19.10;99.90
10702;DHT22;5402;50.004;8.246;2023-05-23T10:02:53;18.90;99.90
10702;DHT22;5402;50.004;8.246;2023-05-23T10:05:30;19.10;99.90
10702;DHT22;5402;50.004;8.246;2023-05-23T10:08:00;19.40;99.90
10702;DHT22;5402;50.004;8.246;2023-05-23T10:10:30;19.40;99.90
10702;DHT22;5402;50.004;8.246;2023-05-23T10:12:59;19.30;99.90
10702;DHT22;5402;50.004;8.246;2023-05-23T10:15:33;19.30;99.90
10702;DHT22;5402;50.004;8.246;2023-05-23T10:18:14;19.10;99.90
10702;DHT22;5402;50.004;8.246;2023-05-23T10:20:46;18.90;99.90
10702;DHT22;5402;50.004;8.246;2023-05-23T10:23:14;18.70;99.90
10702;DHT22;5402;50.004;8.246;2023-05-23T10:25:44;18.70;99.90
10702;DHT22;5402;50.004;8.246;2023-05-23T10:28:13;18.70;99.90
10702;DHT22;5402;50.004;8.246;2023-05-23T10:30:40;19.00;99.90
10702;DHT22;5402;50.004;8.246;2023-05-23T10:33:08;19.20;99.90
10702;DHT22;5402;50.004;8.246;2023-05-23T10:35:44;19.50;99.90
10702;DHT22;5402;50.004;8.246;2023-05-23T10:38:26;19.70;99.90
10702;DHT22;5402;50.004;8.246;2023-05-23T10:41:01;19.80;99.90
10702;DHT22;5402;50.004;8.246;2023-05-23T10:43:35;19.70;99.90
10702;DHT22;5402;50.004;8.246;2023-05-23T10:46:07;19.70;99.90
10702;DHT22;5402;50.004;8.246;2023-05-23T10:48:39;19.40;99.90
10702;DHT22;5402;50.004;8.246;2023-05-23T10:51:09;19.40;99.90
10702;DHT22;5402;50.004;8.246;2023-05-23T10:53:37;19.40;99.90
10702;DHT22;5402;50.004;8.246;2023-05-23T10:56:05;19.10;99.90
10702;DHT22;5402;50.004;8.246;2023-05-23T10:58:33;19.00;99.90
10702;DHT22;5402;50.004;8.246;2023-05-23T11:01:04;18.90;99.90
10702;DHT22;5402;50.004;8.246;2023-05-23T11:03:35;18.70;99.90
10702;DHT22;5402;50.004;8.246;2023-05-23T11:06:03;18.30;99.90
10702;DHT22;5402;50.004;8.246;2023-05-23T11:08:38;18.50;99.90
10702;DHT22;5402;50.004;8.246;2023-05-23T11:11:07;18.60;99.90
10702;DHT22;5402;50.004;8.246;2023-05-23T11:13:58;18.60;99.90
10702;DHT22;5402;50.004;8.246;2023-05-23T11:16:27;18.70;99.90
10702;DHT22;5402;50.004;8.246;2023-05-23T11:19:19;18.70;99.90
10702;DHT22;5402;50.004;8.246;2023-05-23T11:21:49;18.90;99.90
10702;DHT22;5402;50.004;8.246;2023-05-23T11:24:17;19.30;99.90
10702;DHT22;5402;50.004;8.246;2023-05-23T11:26:51;19.20;99.90
10702;DHT22;5402;50.004;8.246;2023-05-23T11:29:25;19.00;99.90
10702;DHT22;5402;50.004;8.246;2023-05-23T11:31:53;19.00;99.90
10702;DHT22;5402;50.004;8.246;2023-05-23T11:34:20;19.00;99.90
10702;DHT22;5402;50.004;8.246;2023-05-23T11:36:49;19.10;99.90
10702;DHT22;5402;50.004;8.246;2023-05-23T11:39:19;19.10;99.90
10702;DHT22;5402;50.004;8.246;2023-05-23T11:41:57;19.00;99.90
10702;DHT22;5402;50.004;8.246;2023-05-23T11:44:24;19.10;99.90
10702;DHT22;5402;50.004;8.246;2023-05-23T11:47:01;19.10;99.90
10702;DHT22;5402;50.004;8.246;2023-05-23T11:49:29;19.40;99.90
10702;DHT22;5402;50.004;8.246;2023-05-23T11:51:57;19.50;99.90
10702;DHT22;5402;50.004;8.246;2023-05-23T11:54:25;19.60;99.90
10702;DHT22;5402;50.004;8.246;2023-05-23T11:56:53;19.20;99.90
10702;DHT22;5402;50.004;8.246;2023-05-23T11:59:24;18.80;99.90
10702;DHT22;5402;50.004;8.246;2023-05-23T12:01:51;18.60;99.90
10702;DHT22;5402;50.004;8.246;2023-05-23T12:04:18;18.40;99.90
10702;DHT22;5402;50.004;8.246;2023-05-23T12:06:46;18.30;99.90
10702;DHT22;5402;50.004;8.246;2023-05-23T12:09:13;18.60;99.90
10702;DHT22;5402;50.004;8.246;2023-05-23T12:11:43;18.80;99.90
10702;DHT22;5402;50.004;8.246;2023-05-23T12:14:14;18.50;99.90
10702;DHT22;5402;50.004;8.246;2023-05-23T12:16:42;18.60;99.90
10702;DHT22;5402;50.004;8.246;2023-05-23T12:19:11;18.90;99.90
10702;DHT22;5402;50.004;8.246;2023-05-23T12:21:42;19.00;99.90
10702;DHT22;5402;50.004;8.246;2023-05-23T12:24:14;19.10;99.90
10702;DHT22;5402;50.004;8.246;2023-05-23T12:26:50;19.00;99.90
10702;DHT22;5402;50.004;8.246;2023-05-23T12:29:20;18.60;99.90
10702;DHT22;5402;50.004;8.246;2023-05-23T12:31:48;18.30;99.90
10702;DHT22;5402;50.004;8.246;2023-05-23T12:34:15;18.10;99.90
10702;DHT22;5402;50.004;8.246;2023-05-23T12:36:42;17.90;99.90
10702;DHT22;5402;50.004;8.246;2023-05-23T12:39:10;18.00;99.90
10702;DHT22;5402;50.004;8.246;2023-05-23T12:41:41;18.30;99.90
10702;DHT22;5402;50.004;8.246;2023-05-23T12:44:10;18.60;99.90
10702;DHT22;5402;50.004;8.246;2023-05-23T12:46:42;19.00;99.90
10702;DHT22;5402;50.004;8.246;2023-05-23T12:49:10;19.40;99.90
10702;DHT22;5402;50.004;8.246;2023-05-23T12:51:37;19.50;99.90
10702;DHT22;5402;50.004;8.246;2023-05-23T12:54:04;19.70;99.90
10702;DHT22;5402;50.004;8.246;2023-05-23T12:56:30;19.60;99.90
10702;DHT22;5402;50.004;8.246;2023-05-23T12:58:57;19.40;99.90
10702;DHT22;5402;50.004;8.246;2023-05-23T13:01:27;19.20;99.90
10702;DHT22;5402;50.004;8.246;2023-05-23T13:03:54;18.80;99.90
10702;DHT22;5402;50.004;8.246;2023-05-23T13:06:21;19.20;99.90
10702;DHT22;5402;50.004;8.246;2023-05-23T13:08:47;19.40;99.90
10702;DHT22;5402;50.004;8.246;2023-05-23T13:11:15;19.00;99.90
10702;DHT22;5402;50.004;8.246;2023-05-23T13:13:42;18.90;99.90
10702;DHT22;5402;50.004;8.246;2023-05-23T13:16:09;19.20;99.90
10702;DHT22;5402;50.004;8.246;2023-05-23T13:18:38;19.30;99.90
10702;DHT22;5402;50.004;8.246;2023-05-23T13:21:04;19.30;99.90
10702;DHT22;5402;50.004;8.246;2023-05-23T13:23:31;19.30;99.90
10702;DHT22;5402;50.004;8.246;2023-05-23T13:25:58;19.40;99.90
10702;DHT22;5402;50.004;8.246;2023-05-23T13:28:25;19.40;99.90
10702;DHT22;5402;50.004;8.246;2023-05-23T13:30:52;19.80;99.90
10702;DHT22;5402;50.004;8.246;2023-05-23T13:33:18;19.90;99.90
10702;DHT22;5402;50.004;8.246;2023-05-23T13:35:48;20.00;99.90
10702;DHT22;5402;50.004;8.246;2023-05-23T13:38:16;20.20;99.90
10702;DHT22;5402;50.004;8.246;2023-05-23T13:40:43;20.00;99.90
10702;DHT22;5402;50.004;8.246;2023-05-23T13:43:10;19.90;99.90
10702;DHT22;5402;50.004;8.246;2023-05-23T13:45:37;19.80;99.90
10702;DHT22;5402;50.004;8.246;2023-05-23T13:48:04;19.40;99.90
10702;DHT22;5402;50.004;8.246;2023-05-23T13:50:30;19.60;99.90
10702;DHT22;5402;50.004;8.246;2023-05-23T13:52:59;19.40;99.90
10702;DHT22;5402;50.004;8.246;2023-05-23T13:55:26;19.40;99.90
10702;DHT22;5402;50.004;8.246;2023-05-23T13:57:52;19.30;99.90
10702;DHT22;5402;50.004;8.246;2023-05-23T14:00:19;19.40;99.90
10702;DHT22;5402;50.004;8.246;2023-05-23T14:02:47;19.30;99.90
10702;DHT22;5402;50.004;8.246;2023-05-23T14:05:13;19.20;99.90
10702;DHT22;5402;50.004;8.246;2023-05-23T14:07:41;19.00;99.90
10702;DHT22;5402;50.004;8.246;2023-05-23T14:10:12;18.80;99.90
10702;DHT22;5402;50.004;8.246;2023-05-23T14:12:39;18.50;99.90
10702;DHT22;5402;50.004;8.246;2023-05-23T14:15:07;18.50;99.90
10702;DHT22;5402;50.004;8.246;2023-05-23T14:17:34;18.30;99.90
10702;DHT22;5402;50.004;8.246;2023-05-23T14:20:01;18.30;99.90
10702;DHT22;5402;50.004;8.246;2023-05-23T14:22:28;17.90;99.90
10702;DHT22;5402;50.004;8.246;2023-05-23T14:24:54;18.10;99.90
10702;DHT22;5402;50.004;8.246;2023-05-23T14:27:23;18.10;99.90
10702;DHT22;5402;50.004;8.246;2023-05-23T14:29:49;17.80;99.90
10702;DHT22;5402;50.004;8.246;2023-05-23T14:32:16;18.00;99.90
10702;DHT22;5402;50.004;8.246;2023-05-23T14:34:43;17.90;99.90
10702;DHT22;5402;50.004;8.246;2023-05-23T14:37:09;17.60;99.90
10702;DHT22;5402;50.004;8.246;2023-05-23T14:39:36;17.80;99.90
10702;DHT22;5402;50.004;8.246;2023-05-23T14:42:03;17.90;99.90
10702;DHT22;5402;50.004;8.246;2023-05-23T14:44:31;18.30;99.90
10702;DHT22;5402;50.004;8.246;2023-05-23T14:46:58;18.30;99.90
10702;DHT22;5402;50.004;8.246;2023-05-23T14:49:25;18.00;99.90
10702;DHT22;5402;50.004;8.246;2023-05-23T14:51:52;17.90;99.90
10702;DHT22;5402;50.004;8.246;2023-05-23T14:54:18;17.60;99.90
10702;DHT22;5402;50.004;8.246;2023-05-23T14:56:45;17.50;99.90
10702;DHT22;5402;50.004;8.246;2023-05-23T14:59:12;17.30;99.90
10702;DHT22;5402;50.004;8.246;2023-05-23T15:01:40;17.40;99.90
10702;DHT22;5402;50.004;8.246;2023-05-23T15:04:07;17.50;99.90
10702;DHT22;5402;50.004;8.246;2023-05-23T15:06:34;17.80;99.90
10702;DHT22;5402;50.004;8.246;2023-05-23T15:09:01;17.80;99.90
10702;DHT22;5402;50.004;8.246;2023-05-23T15:11:28;17.90;99.90
10702;DHT22;5402;50.004;8.246;2023-05-23T15:13:56;18.10;99.90
10702;DHT22;5402;50.004;8.246;2023-05-23T15:16:25;18.30;99.90
10702;DHT22;5402;50.004;8.246;2023-05-23T15:18:58;18.80;99.90
10702;DHT22;5402;50.004;8.246;2023-05-23T15:21:24;18.60;99.90
10702;DHT22;5402;50.004;8.246;2023-05-23T15:23:51;18.80;99.90
10702;DHT22;5402;50.004;8.246;2023-05-23T15:26:18;18.50;99.90
10702;DHT22;5402;50.004;8.246;2023-05-23T15:28:45;18.50;99.90
10702;DHT22;5402;50.004;8.246;2023-05-23T15:31:12;18.10;99.90
10702;DHT22;5402;50.004;8.246;2023-05-23T15:33:39;17.80;99.90
10702;DHT22;5402;50.004;8.246;2023-05-23T15:36:07;17.70;99.90
10702;DHT22;5402;50.004;8.246;2023-05-23T15:38:34;17.90;99.90
10702;DHT22;5402;50.004;8.246;2023-05-23T15:41:01;18.10;99.90
10702;DHT22;5402;50.004;8.246;2023-05-23T15:43:29;18.10;99.90
10702;DHT22;5402;50.004;8.246;2023-05-23T15:45:57;18.20;99.90
10702;DHT22;5402;50.004;8.246;2023-05-23T15:48:24;18.30;99.90
10702;DHT22;5402;50.004;8.246;2023-05-23T15:50:50;18.30;99.90